createdAt,value
2023-01-08T00:00:29.155Z,15.43
2023-01-08T00:03:01.049Z,11.77
2023-01-08T00:05:32.828Z,12.07
2023-01-08T00:08:05.445Z,10.23
2023-01-08T00:10:38.609Z,11.10
2023-01-08T00:13:10.665Z,11.07
2023-01-08T00:15:42.353Z,10.60
2023-01-08T00:18:14.118Z,11.30
2023-01-08T00:20:46.555Z,8.83
2023-01-08T00:23:20.392Z,13.97
2023-01-08T00:25:52.177Z,11.20
2023-01-08T00:28:24.080Z,9.90
2023-01-08T00:30:56.059Z,9.83
2023-01-08T00:33:27.848Z,10.10
2023-01-08T00:35:59.689Z,10.17
2023-01-08T00:38:31.421Z,9.03
2023-01-08T00:41:03.676Z,7.50
2023-01-08T00:43:35.828Z,7.77
2023-01-08T00:46:08.465Z,9.27
2023-01-08T00:48:40.235Z,11.60
2023-01-08T00:51:11.921Z,10.67
2023-01-08T00:53:43.695Z,10.07
2023-01-08T00:56:15.460Z,8.60
2023-01-08T00:58:47.279Z,9.53
2023-01-08T01:01:19.092Z,11.23
2023-01-08T01:03:50.914Z,11.43
2023-01-08T01:06:22.705Z,10.37
2023-01-08T01:08:54.450Z,10.23
2023-01-08T01:11:28.304Z,7.93
2023-01-08T01:14:00.118Z,9.20
2023-01-08T01:16:32.023Z,13.90
2023-01-08T01:19:03.875Z,9.43
2023-01-08T01:21:35.690Z,10.63
2023-01-08T01:24:07.785Z,8.80
2023-01-08T01:26:40.752Z,10.30
2023-01-08T01:29:12.472Z,7.60
2023-01-08T01:31:44.218Z,10.53
2023-01-08T01:34:16.193Z,11.40
2023-01-08T01:36:47.941Z,8.83
2023-01-08T01:39:20.029Z,7.80
2023-01-08T01:41:53.343Z,7.90
2023-01-08T01:44:45.306Z,8.70
2023-01-08T01:47:37.630Z,7.60
2023-01-08T01:50:27.000Z,8.87
2023-01-08T01:53:06.998Z,9.93
2023-01-08T01:55:42.494Z,15.07
2023-01-08T01:58:32.720Z,10.00
2023-01-08T02:01:07.252Z,9.07
2023-01-08T02:03:40.496Z,12.23
2023-01-08T02:06:30.452Z,10.53
2023-01-08T02:09:35.584Z,8.70
2023-01-08T02:12:25.612Z,16.27
2023-01-08T02:15:19.259Z,8.17
2023-01-08T02:17:56.017Z,10.90
2023-01-08T02:20:34.392Z,10.87
2023-01-08T02:23:15.380Z,19.07
2023-01-08T02:25:56.284Z,11.30
2023-01-08T02:28:29.346Z,11.03
2023-01-08T02:31:01.624Z,15.03
2023-01-08T02:33:33.720Z,15.87
2023-01-08T02:36:29.028Z,13.70
2023-01-08T02:39:29.891Z,10.67
2023-01-08T02:42:06.019Z,13.90
2023-01-08T02:44:59.437Z,9.43
2023-01-08T02:47:35.765Z,16.27
2023-01-08T02:50:13.342Z,23.30
2023-01-08T02:52:52.991Z,17.63
2023-01-08T02:55:26.822Z,9.20
2023-01-08T02:57:59.347Z,16.47
2023-01-08T03:00:32.369Z,13.67
2023-01-08T03:03:14.323Z,9.10
2023-01-08T03:05:51.125Z,28.47
2023-01-08T03:08:23.915Z,10.97
2023-01-08T03:11:04.411Z,14.40
2023-01-08T03:13:41.982Z,11.93
2023-01-08T03:16:36.824Z,14.17
2023-01-08T03:19:25.486Z,20.70
2023-01-08T03:22:00.017Z,8.00
2023-01-08T03:24:37.222Z,12.50
2023-01-08T03:27:12.675Z,11.83
2023-01-08T03:29:46.254Z,18.40
2023-01-08T03:32:19.991Z,7.83
2023-01-08T03:34:54.356Z,8.00
2023-01-08T03:37:32.007Z,10.50
2023-01-08T03:40:16.240Z,10.30
2023-01-08T03:42:48.006Z,23.23
2023-01-08T03:45:22.187Z,19.83
2023-01-08T03:47:54.756Z,12.10
2023-01-08T03:50:30.091Z,24.40
2023-01-08T03:53:01.798Z,32.30
2023-01-08T03:55:33.500Z,8.17
2023-01-08T03:58:05.201Z,9.93
2023-01-08T04:00:37.068Z,28.57
2023-01-08T04:03:09.544Z,22.37
2023-01-08T04:05:41.301Z,11.73
2023-01-08T04:08:13.047Z,15.20
2023-01-08T04:10:44.737Z,15.90
2023-01-08T04:13:16.474Z,8.93
2023-01-08T04:15:49.729Z,23.97
2023-01-08T04:18:21.413Z,16.07
2023-01-08T04:20:53.092Z,13.40
2023-01-08T04:23:26.097Z,9.23
2023-01-08T04:25:57.887Z,14.13
2023-01-08T04:28:30.359Z,10.00
2023-01-08T04:31:09.013Z,9.97
2023-01-08T04:33:40.807Z,9.07
2023-01-08T04:36:12.680Z,9.73
2023-01-08T04:38:44.423Z,16.23
2023-01-08T04:41:18.367Z,12.63
2023-01-08T04:43:50.035Z,14.43
2023-01-08T04:46:21.890Z,14.73
2023-01-08T04:48:53.622Z,7.50
2023-01-08T04:51:26.314Z,8.53
2023-01-08T04:53:58.078Z,7.47
2023-01-08T04:56:30.063Z,8.80
2023-01-08T04:59:01.850Z,26.87
2023-01-08T05:01:33.681Z,14.53
2023-01-08T05:04:06.142Z,20.93
2023-01-08T05:06:37.852Z,15.83
2023-01-08T05:09:09.717Z,16.83
2023-01-08T05:11:43.229Z,18.63
2023-01-08T05:14:14.963Z,18.30
2023-01-08T05:16:47.469Z,13.83
2023-01-08T05:19:19.127Z,7.77
2023-01-08T05:21:50.845Z,10.23
2023-01-08T05:24:22.510Z,10.27
2023-01-08T05:26:54.275Z,13.57
2023-01-08T05:29:26.036Z,12.70
2023-01-08T05:31:57.813Z,17.90
2023-01-08T05:34:29.499Z,6.57
2023-01-08T05:37:01.250Z,8.53
2023-01-08T05:39:32.926Z,10.57
2023-01-08T05:42:05.185Z,8.23
2023-01-08T05:44:36.888Z,9.70
2023-01-08T05:47:08.715Z,15.87
2023-01-08T05:49:40.378Z,11.17
2023-01-08T05:52:12.092Z,6.53
2023-01-08T05:54:43.743Z,7.67
2023-01-08T05:57:15.489Z,18.80
2023-01-08T05:59:47.301Z,6.73
2023-01-08T06:02:19.132Z,10.57
2023-01-08T06:04:50.816Z,5.97
2023-01-08T06:07:22.588Z,7.77
2023-01-08T06:09:54.252Z,6.80
2023-01-08T06:12:25.964Z,7.17
2023-01-08T06:14:57.737Z,6.63
2023-01-08T06:17:29.487Z,9.23
2023-01-08T06:20:01.206Z,12.23
2023-01-08T06:22:33.742Z,6.73
2023-01-08T06:25:05.890Z,8.23
2023-01-08T06:27:39.864Z,7.37
2023-01-08T06:30:12.451Z,6.10
2023-01-08T06:32:44.257Z,8.63
2023-01-08T06:35:16.077Z,5.40
2023-01-08T06:37:48.408Z,6.07
2023-01-08T06:40:20.095Z,8.10
2023-01-08T06:42:51.832Z,9.70
2023-01-08T06:45:23.520Z,6.27
2023-01-08T06:47:55.390Z,9.67
2023-01-08T06:50:27.195Z,25.00
2023-01-08T06:52:59.018Z,7.13
2023-01-08T06:55:30.871Z,6.93
2023-01-08T06:58:02.686Z,22.23
2023-01-08T07:00:34.475Z,11.37
2023-01-08T07:03:06.674Z,9.93
2023-01-08T07:05:38.547Z,7.83
2023-01-08T07:08:17.396Z,6.73
2023-01-08T07:10:49.118Z,6.17
2023-01-08T07:13:22.654Z,15.67
2023-01-08T07:15:54.384Z,7.30
2023-01-08T07:18:26.071Z,6.60
2023-01-08T07:20:57.801Z,12.83
2023-01-08T07:23:29.940Z,14.80
2023-01-08T07:26:02.896Z,9.57
2023-01-08T07:28:34.908Z,7.67
2023-01-08T07:31:07.003Z,6.13
2023-01-08T07:33:38.832Z,7.67
2023-01-08T07:36:10.640Z,7.10
2023-01-08T07:38:42.876Z,16.77
2023-01-08T07:41:14.566Z,9.60
2023-01-08T07:43:48.365Z,6.53
2023-01-08T07:46:20.161Z,6.60
2023-01-08T07:48:51.926Z,11.30
2023-01-08T07:51:23.966Z,8.60
2023-01-08T07:53:56.700Z,12.23
2023-01-08T07:56:28.556Z,9.63
2023-01-08T07:59:00.324Z,7.37
2023-01-08T08:01:32.148Z,6.70
2023-01-08T08:04:04.030Z,4.93
2023-01-08T08:06:35.799Z,6.30
2023-01-08T08:09:07.736Z,5.50
2023-01-08T08:11:39.479Z,5.87
2023-01-08T08:14:11.309Z,5.57
2023-01-08T08:16:43.040Z,9.73
2023-01-08T08:19:15.640Z,6.13
2023-01-08T08:21:47.427Z,7.47
2023-01-08T08:24:19.215Z,9.97
2023-01-08T08:26:51.401Z,8.20
2023-01-08T08:29:23.171Z,5.87
2023-01-08T08:31:54.951Z,7.97
2023-01-08T08:34:26.729Z,7.20
2023-01-08T08:36:58.408Z,5.73
2023-01-08T08:39:30.097Z,4.90
2023-01-08T08:42:01.822Z,4.13
2023-01-08T08:44:33.580Z,4.93
2023-01-08T08:47:09.059Z,6.93
2023-01-08T08:49:40.787Z,5.13
2023-01-08T08:52:12.491Z,6.40
2023-01-08T08:54:44.187Z,5.10
2023-01-08T08:57:15.934Z,6.03
2023-01-08T08:59:47.743Z,9.00
2023-01-08T09:02:20.009Z,7.03
2023-01-08T09:04:51.924Z,6.27
2023-01-08T09:07:23.614Z,8.87
2023-01-08T09:09:55.321Z,6.80
2023-01-08T09:12:27.130Z,6.37
2023-01-08T09:14:58.899Z,8.73
2023-01-08T09:17:30.709Z,9.63
2023-01-08T09:20:04.136Z,6.03
2023-01-08T09:22:35.865Z,8.50
2023-01-08T09:25:07.989Z,7.80
2023-01-08T09:27:39.673Z,8.40
2023-01-08T09:30:11.634Z,9.30
2023-01-08T09:32:43.344Z,5.97
2023-01-08T09:35:15.225Z,8.23
2023-01-08T09:37:53.972Z,8.40
2023-01-08T09:40:32.302Z,10.50
2023-01-08T09:43:05.977Z,15.57
2023-01-08T09:45:40.747Z,7.30
2023-01-08T09:48:15.095Z,14.23
2023-01-08T09:50:48.150Z,7.43
2023-01-08T09:53:20.466Z,9.27
2023-01-08T09:56:09.249Z,8.10
2023-01-08T09:58:54.162Z,7.53
2023-01-08T10:01:37.675Z,7.90
2023-01-08T10:04:18.697Z,9.87
2023-01-08T10:07:00.242Z,10.43
2023-01-08T10:09:32.910Z,8.53
2023-01-08T10:12:06.304Z,8.40
2023-01-08T10:14:40.384Z,12.00
2023-01-08T10:17:34.776Z,9.90
2023-01-08T10:20:21.602Z,7.90
2023-01-08T10:22:54.555Z,10.47
2023-01-08T10:25:28.322Z,9.47
2023-01-08T10:28:02.585Z,6.83
2023-01-08T10:30:38.183Z,10.93
2023-01-08T10:33:19.714Z,10.90
2023-01-08T10:35:58.664Z,7.93
2023-01-08T10:38:38.020Z,13.03
2023-01-08T10:41:13.843Z,9.17
2023-01-08T10:44:04.541Z,8.47
2023-01-08T10:46:45.025Z,10.93
2023-01-08T10:49:28.236Z,8.83
2023-01-08T10:52:00.923Z,8.93
2023-01-08T10:54:38.675Z,9.27
2023-01-08T10:57:30.789Z,10.13
2023-01-08T11:00:02.500Z,8.77
2023-01-08T11:02:38.977Z,9.73
2023-01-08T11:05:11.757Z,11.83
2023-01-08T11:07:47.806Z,8.87
2023-01-08T11:10:25.113Z,8.17
2023-01-08T11:13:00.145Z,11.30
2023-01-08T11:15:37.668Z,8.40
2023-01-08T11:18:20.250Z,8.70
2023-01-08T11:20:53.941Z,11.60
2023-01-08T11:23:27.747Z,10.23
2023-01-08T11:26:10.754Z,7.67
2023-01-08T11:28:47.128Z,10.50
2023-01-08T11:32:08.942Z,9.40
2023-01-08T11:35:01.457Z,10.27
2023-01-08T11:37:39.348Z,7.27
2023-01-08T11:40:16.886Z,10.30
2023-01-08T11:43:03.525Z,9.40
2023-01-08T11:45:49.379Z,9.20
2023-01-08T11:48:26.963Z,10.37
2023-01-08T11:51:20.359Z,9.10
2023-01-08T11:54:01.144Z,8.00
2023-01-08T11:57:00.067Z,8.53
2023-01-08T11:59:53.579Z,7.80
2023-01-08T12:02:50.366Z,8.73
2023-01-08T12:05:43.262Z,9.93
2023-01-08T12:08:33.531Z,12.40
2023-01-08T12:11:18.220Z,11.40
2023-01-08T12:13:55.903Z,12.53
2023-01-08T12:16:48.489Z,8.80
2023-01-08T12:19:39.970Z,9.40
2023-01-08T12:22:34.095Z,11.77
2023-01-08T12:25:31.500Z,10.50
2023-01-08T12:28:11.780Z,10.07
2023-01-08T12:31:06.314Z,10.27
2023-01-08T12:33:48.221Z,14.80
2023-01-08T12:36:36.439Z,13.50
2023-01-08T12:39:34.769Z,12.67
2023-01-08T12:42:13.134Z,12.03
2023-01-08T12:44:46.357Z,12.37
2023-01-08T12:47:22.792Z,8.63
2023-01-08T12:50:20.585Z,11.17
2023-01-08T12:53:03.309Z,7.87
2023-01-08T12:55:49.445Z,9.03
2023-01-08T12:58:39.225Z,10.63
2023-01-08T13:01:27.980Z,10.83
2023-01-08T13:04:01.252Z,9.90
2023-01-08T13:06:33.145Z,11.13
2023-01-08T13:09:05.179Z,12.23
2023-01-08T13:11:38.538Z,9.57
2023-01-08T13:14:13.936Z,9.27
2023-01-08T13:16:47.305Z,9.87
2023-01-08T13:19:25.927Z,11.83
2023-01-08T13:21:59.761Z,13.43
2023-01-08T13:24:37.701Z,12.30
2023-01-08T13:27:10.735Z,10.53
2023-01-08T13:29:46.801Z,12.40
2023-01-08T13:32:34.835Z,12.70
2023-01-08T13:35:15.864Z,10.20
2023-01-08T13:37:50.305Z,15.77
2023-01-08T13:40:43.816Z,12.77
2023-01-08T13:43:18.237Z,12.50
2023-01-08T13:46:02.117Z,10.63
2023-01-08T13:48:40.464Z,11.00
2023-01-08T13:51:49.167Z,11.90
2023-01-08T13:54:31.396Z,10.20
2023-01-08T13:57:15.982Z,9.37
2023-01-08T13:59:58.893Z,10.27
2023-01-08T14:02:50.708Z,11.13
2023-01-08T14:05:25.592Z,10.73
2023-01-08T14:07:58.993Z,12.13
2023-01-08T14:10:31.459Z,15.27
2023-01-08T14:13:08.655Z,11.53
2023-01-08T14:15:40.424Z,12.87
2023-01-08T14:18:14.033Z,13.43
2023-01-08T14:20:50.575Z,16.30
2023-01-08T14:23:29.416Z,12.93
2023-01-08T14:26:05.411Z,11.83
2023-01-08T14:28:37.280Z,12.43
2023-01-08T14:31:23.481Z,13.73
2023-01-08T14:33:58.271Z,15.23
2023-01-08T14:36:30.046Z,14.53
2023-01-08T14:39:01.739Z,11.27
2023-01-08T14:41:56.222Z,18.40
2023-01-08T14:44:36.737Z,11.23
2023-01-08T14:47:18.208Z,9.80
2023-01-08T14:49:52.476Z,14.20
2023-01-08T14:52:24.349Z,13.33
2023-01-08T14:54:59.909Z,12.97
2023-01-08T14:57:31.822Z,9.20
2023-01-08T15:00:04.032Z,7.97
2023-01-08T15:02:37.510Z,10.23
2023-01-08T15:05:18.429Z,13.07
2023-01-08T15:08:01.895Z,13.73
2023-01-08T15:10:41.050Z,8.60
2023-01-08T15:13:23.971Z,8.90
2023-01-08T15:15:59.934Z,10.93
2023-01-08T15:18:31.767Z,12.97
2023-01-08T15:21:03.901Z,9.23
2023-01-08T15:23:40.585Z,9.30
2023-01-08T15:26:16.240Z,7.13
2023-01-08T15:28:54.860Z,11.57
2023-01-08T15:31:45.033Z,10.77
2023-01-08T15:34:19.740Z,10.43
2023-01-08T15:36:51.440Z,11.53
2023-01-08T15:39:23.127Z,15.90
2023-01-08T15:42:13.588Z,13.10
2023-01-08T15:44:46.504Z,11.97
2023-01-08T15:47:18.219Z,13.73
2023-01-08T15:49:50.800Z,10.90
2023-01-08T15:52:29.545Z,14.43
2023-01-08T15:55:01.807Z,16.43
2023-01-08T15:57:33.619Z,13.13
2023-01-08T16:00:06.116Z,10.53
2023-01-08T16:02:47.043Z,13.03
2023-01-08T16:05:20.920Z,9.30
2023-01-08T16:07:52.745Z,11.43
2023-01-08T16:10:24.934Z,13.13
2023-01-08T16:12:56.648Z,13.57
2023-01-08T16:15:30.685Z,14.93
2023-01-08T16:18:02.445Z,14.37
2023-01-08T16:20:34.203Z,13.77
2023-01-08T16:23:06.470Z,22.27
2023-01-08T16:25:41.315Z,14.23
2023-01-08T16:28:13.120Z,12.03
2023-01-08T16:30:44.985Z,18.43
2023-01-08T16:33:16.657Z,18.80
2023-01-08T16:36:00.007Z,17.87
2023-01-08T16:38:33.536Z,22.23
2023-01-08T16:41:06.007Z,17.97
2023-01-08T16:43:41.715Z,14.17
2023-01-08T16:46:16.185Z,19.17
2023-01-08T16:48:48.561Z,19.90
2023-01-08T16:51:21.224Z,18.67
2023-01-08T16:53:54.090Z,17.90
2023-01-08T16:56:25.815Z,14.63
2023-01-08T16:58:57.566Z,17.37
2023-01-08T17:01:29.407Z,21.80
2023-01-08T17:04:01.247Z,15.27
2023-01-08T17:06:32.969Z,15.10
2023-01-08T17:09:05.081Z,19.13
2023-01-08T17:11:36.784Z,12.30
2023-01-08T17:14:09.484Z,21.30
2023-01-08T17:16:42.896Z,12.73
2023-01-08T17:19:15.370Z,14.17
2023-01-08T17:21:50.150Z,13.00
2023-01-08T17:24:21.867Z,14.23
2023-01-08T17:26:53.612Z,15.77
2023-01-08T17:29:25.327Z,12.27
2023-01-08T17:31:57.013Z,12.63
2023-01-08T17:34:28.758Z,16.20
2023-01-08T17:37:00.468Z,15.07
2023-01-08T17:39:32.312Z,25.10
2023-01-08T17:42:22.670Z,16.30
2023-01-08T17:45:02.841Z,15.50
2023-01-08T17:47:35.281Z,18.33
2023-01-08T17:50:07.394Z,14.77
2023-01-08T17:52:39.090Z,17.83
2023-01-08T17:55:10.891Z,13.57
2023-01-08T17:57:42.735Z,21.10
2023-01-08T18:00:14.968Z,19.77
2023-01-08T18:02:46.781Z,18.93
2023-01-08T18:05:18.725Z,26.23
2023-01-08T18:07:50.441Z,15.63
2023-01-08T18:10:22.192Z,16.53
2023-01-08T18:12:53.935Z,17.87
2023-01-08T18:15:25.735Z,28.97
2023-01-08T18:17:57.595Z,16.73
2023-01-08T18:20:29.339Z,17.10
2023-01-08T18:23:01.074Z,15.37
2023-01-08T18:25:32.791Z,20.93
2023-01-08T18:28:04.568Z,17.83
2023-01-08T18:30:36.257Z,20.07
2023-01-08T18:33:08.161Z,19.10
2023-01-08T18:35:40.136Z,23.93
2023-01-08T18:38:17.796Z,23.37
2023-01-08T18:40:49.550Z,20.57
2023-01-08T18:43:21.371Z,17.63
2023-01-08T18:45:59.869Z,21.97
2023-01-08T18:48:32.692Z,17.00
2023-01-08T18:51:05.744Z,22.50
2023-01-08T18:53:37.497Z,17.87
2023-01-08T18:56:10.695Z,19.90
2023-01-08T18:58:42.531Z,19.67
2023-01-08T19:01:14.436Z,17.33
2023-01-08T19:03:46.403Z,22.77
2023-01-08T19:06:18.582Z,19.27
2023-01-08T19:08:50.292Z,23.73
2023-01-08T19:11:21.984Z,19.67
2023-01-08T19:13:55.763Z,21.23
2023-01-08T19:16:27.706Z,24.20
2023-01-08T19:18:59.554Z,20.97
2023-01-08T19:21:31.327Z,18.60
2023-01-08T19:24:03.078Z,28.30
2023-01-08T19:26:34.867Z,18.13
2023-01-08T19:29:06.608Z,28.57
2023-01-08T19:31:38.573Z,23.23
2023-01-08T19:34:10.898Z,17.23
2023-01-08T19:36:43.800Z,25.50
2023-01-08T19:39:15.742Z,19.00
2023-01-08T19:42:05.962Z,24.43
2023-01-08T19:44:37.744Z,21.63
2023-01-08T19:47:11.184Z,16.97
2023-01-08T19:49:47.490Z,19.83
2023-01-08T19:52:20.349Z,26.60
2023-01-08T19:54:52.089Z,21.13
2023-01-08T19:57:24.525Z,22.20
2023-01-08T19:59:56.260Z,20.60
2023-01-08T20:02:28.002Z,25.83
2023-01-08T20:04:59.735Z,24.03
2023-01-08T20:07:31.526Z,23.47
2023-01-08T20:10:04.975Z,18.80
2023-01-08T20:12:37.823Z,17.77
2023-01-08T20:15:10.280Z,18.43
2023-01-08T20:17:42.694Z,22.80
2023-01-08T20:20:14.423Z,16.30
2023-01-08T20:22:46.226Z,18.60
2023-01-08T20:25:18.102Z,17.90
2023-01-08T20:27:49.915Z,17.33
2023-01-08T20:30:21.717Z,18.70
2023-01-08T20:32:53.468Z,23.03
2023-01-08T20:35:25.236Z,17.53
2023-01-08T20:37:56.986Z,17.20
2023-01-08T20:40:28.748Z,11.33
2023-01-08T20:43:00.463Z,17.77
2023-01-08T20:45:32.303Z,14.93
2023-01-08T20:48:04.295Z,18.77
2023-01-08T20:50:36.013Z,14.70
2023-01-08T20:53:07.876Z,14.47
2023-01-08T20:55:39.588Z,19.87
2023-01-08T20:58:11.387Z,17.03
2023-01-08T21:00:43.157Z,13.87
2023-01-08T21:03:15.231Z,14.23
2023-01-08T21:05:46.936Z,14.00
2023-01-08T21:08:18.622Z,16.23
2023-01-08T21:10:58.184Z,17.83
2023-01-08T21:13:30.077Z,14.70
2023-01-08T21:16:04.807Z,13.70
2023-01-08T21:18:37.333Z,12.03
2023-01-08T21:21:11.087Z,16.43
2023-01-08T21:23:43.029Z,14.57
2023-01-08T21:26:16.988Z,13.47
2023-01-08T21:28:49.794Z,15.43
2023-01-08T21:31:25.808Z,16.50
2023-01-08T21:34:00.879Z,17.97
2023-01-08T21:36:33.107Z,14.00
2023-01-08T21:39:05.569Z,19.93
2023-01-08T21:41:55.999Z,18.10
2023-01-08T21:44:46.563Z,15.63
2023-01-08T21:47:18.562Z,13.27
2023-01-08T21:49:50.407Z,11.50
2023-01-08T21:52:40.624Z,12.50
2023-01-08T21:55:16.732Z,14.27
2023-01-08T21:57:48.447Z,14.03
2023-01-08T22:00:20.355Z,11.93
2023-01-08T22:02:52.254Z,13.83
2023-01-08T22:05:23.939Z,12.53
2023-01-08T22:07:55.614Z,12.10
2023-01-08T22:10:27.293Z,15.90
2023-01-08T22:12:58.956Z,15.23
2023-01-08T22:15:30.678Z,12.90
2023-01-08T22:18:02.416Z,12.53
2023-01-08T22:20:34.128Z,17.63
2023-01-08T22:23:05.819Z,11.53
2023-01-08T22:25:40.988Z,11.93
2023-01-08T22:28:12.923Z,12.50
2023-01-08T22:30:44.643Z,10.27
2023-01-08T22:33:16.395Z,9.13
2023-01-08T22:35:48.138Z,11.73
2023-01-08T22:38:19.846Z,10.63
2023-01-08T22:40:51.694Z,13.40
2023-01-08T22:43:23.613Z,11.93
2023-01-08T22:45:59.929Z,11.13
2023-01-08T22:48:31.713Z,10.07
2023-01-08T22:51:04.147Z,9.03
2023-01-08T22:53:36.468Z,10.40
2023-01-08T22:56:12.113Z,10.67
2023-01-08T22:58:47.225Z,11.10
2023-01-08T23:01:24.794Z,6.57
2023-01-08T23:03:59.188Z,11.63
2023-01-08T23:06:32.304Z,12.40
2023-01-08T23:09:04.639Z,9.17
2023-01-08T23:11:36.353Z,11.03
2023-01-08T23:14:12.506Z,12.13
2023-01-08T23:16:44.381Z,11.77
2023-01-08T23:19:16.271Z,8.53
2023-01-08T23:21:48.067Z,7.37
2023-01-08T23:24:19.928Z,9.23
2023-01-08T23:26:51.778Z,10.43
2023-01-08T23:29:29.227Z,10.07
2023-01-08T23:32:00.989Z,10.13
2023-01-08T23:34:32.826Z,9.97
2023-01-08T23:37:04.605Z,12.70
2023-01-08T23:39:36.347Z,7.73
2023-01-08T23:42:08.144Z,7.80
2023-01-08T23:44:39.955Z,9.57
2023-01-08T23:47:11.651Z,7.50
2023-01-08T23:49:43.399Z,8.90
2023-01-08T23:52:15.114Z,11.43
2023-01-08T23:54:46.792Z,8.43
2023-01-08T23:57:18.540Z,7.83
2023-01-08T23:59:50.357Z,9.30
